createdAt,value
2023-05-05T00:01:54.022Z,49.60
2023-05-05T00:04:24.879Z,49.75
2023-05-05T00:06:55.595Z,49.68
2023-05-05T00:09:26.336Z,49.68
2023-05-05T00:11:56.970Z,49.61
2023-05-05T00:14:27.564Z,49.58
2023-05-05T00:16:58.205Z,49.97
2023-05-05T00:19:28.923Z,50.03
2023-05-05T00:21:59.937Z,50.86
2023-05-05T00:24:29.021Z,51.26
2023-05-05T00:26:59.709Z,51.82
2023-05-05T00:29:30.734Z,51.95
2023-05-05T00:32:01.334Z,52.29
2023-05-05T00:34:31.998Z,52.27
2023-05-05T00:37:03.037Z,53.58
2023-05-05T00:39:32.135Z,52.79
2023-05-05T00:42:02.748Z,52.92
2023-05-05T00:44:39.120Z,53.59
2023-05-05T00:47:10.922Z,54.08
2023-05-05T00:49:41.659Z,54.13
2023-05-05T00:52:12.753Z,53.59
2023-05-05T00:54:41.882Z,54.29
2023-05-05T00:57:12.679Z,54.85
2023-05-05T00:59:44.676Z,55.35
2023-05-05T01:02:15.293Z,55.36
2023-05-05T01:04:46.066Z,55.89
2023-05-05T01:07:28.955Z,56.79
2023-05-05T01:10:19.554Z,56.24
2023-05-05T01:12:58.188Z,55.47
2023-05-05T01:15:34.181Z,56.46
2023-05-05T01:18:11.874Z,56.33
2023-05-05T01:20:50.084Z,56.17
2023-05-05T01:23:36.325Z,56.80
2023-05-05T01:26:21.828Z,56.94
2023-05-05T01:29:18.150Z,57.05
2023-05-05T01:31:54.836Z,56.33
2023-05-05T01:34:32.099Z,56.25
2023-05-05T01:37:10.174Z,56.99
2023-05-05T01:39:43.676Z,56.84
2023-05-05T01:42:14.619Z,56.83
2023-05-05T01:44:46.487Z,56.55
2023-05-05T01:47:19.865Z,56.72
2023-05-05T01:49:52.184Z,57.49
2023-05-05T01:52:24.321Z,58.31
2023-05-05T01:54:56.279Z,58.67
2023-05-05T01:57:29.726Z,58.59
2023-05-05T02:00:00.784Z,58.32
2023-05-05T02:02:30.684Z,58.91
2023-05-05T02:05:02.946Z,59.33
2023-05-05T02:07:35.063Z,59.28
2023-05-05T02:10:10.507Z,59.27
2023-05-05T02:12:42.649Z,60.21
2023-05-05T02:15:16.544Z,59.71
2023-05-05T02:17:48.834Z,59.72
2023-05-05T02:20:20.307Z,60.49
2023-05-05T02:22:51.082Z,61.07
2023-05-05T02:25:21.959Z,61.37
2023-05-05T02:27:59.656Z,60.90
2023-05-05T02:30:35.129Z,60.83
2023-05-05T02:33:10.265Z,61.11
2023-05-05T02:35:43.358Z,61.07
2023-05-05T02:38:17.832Z,61.30
2023-05-05T02:40:51.125Z,61.22
2023-05-05T02:43:24.651Z,62.12
2023-05-05T02:45:55.396Z,62.41
2023-05-05T02:48:26.070Z,62.99
2023-05-05T02:50:56.659Z,62.85
2023-05-05T02:53:28.301Z,63.20
2023-05-05T02:56:05.976Z,64.03
2023-05-05T02:58:45.392Z,63.05
2023-05-05T03:01:26.659Z,63.15
2023-05-05T03:04:05.025Z,63.93
2023-05-05T03:06:40.473Z,63.30
2023-05-05T03:09:16.101Z,62.58
2023-05-05T03:11:50.315Z,63.88
2023-05-05T03:14:21.876Z,63.15
2023-05-05T03:16:54.852Z,62.61
2023-05-05T03:19:26.555Z,63.19
2023-05-05T03:21:57.940Z,62.61
2023-05-05T03:24:28.579Z,63.14
2023-05-05T03:26:59.263Z,62.69
2023-05-05T03:29:30.017Z,63.15
2023-05-05T03:32:00.734Z,62.76
2023-05-05T03:34:31.397Z,62.67
2023-05-05T03:37:02.057Z,62.43
2023-05-05T03:39:32.752Z,61.87
2023-05-05T03:42:03.456Z,61.49
2023-05-05T03:44:34.264Z,61.91
2023-05-05T03:47:05.196Z,61.45
2023-05-05T03:49:35.831Z,61.56
2023-05-05T03:52:06.676Z,61.50
2023-05-05T03:54:37.351Z,61.44
2023-05-05T03:57:08.000Z,61.32
2023-05-05T03:59:38.755Z,61.18
2023-05-05T04:02:09.584Z,61.13
2023-05-05T04:04:40.331Z,60.67
2023-05-05T04:07:11.265Z,60.42
2023-05-05T04:09:41.964Z,60.14
2023-05-05T04:12:12.631Z,60.10
2023-05-05T04:14:43.591Z,59.73
2023-05-05T04:17:14.229Z,59.43
2023-05-05T04:19:44.919Z,59.27
2023-05-05T04:22:18.049Z,59.33
2023-05-05T04:24:48.701Z,59.08
2023-05-05T04:27:19.553Z,59.04
2023-05-05T04:29:50.151Z,58.89
2023-05-05T04:32:21.276Z,58.70
2023-05-05T04:34:52.217Z,58.50
2023-05-05T04:37:22.919Z,58.39
2023-05-05T04:39:55.275Z,58.13
2023-05-05T04:42:56.787Z,58.12
2023-05-05T04:46:37.034Z,57.83
2023-05-05T04:50:21.008Z,57.86
2023-05-05T04:53:40.461Z,57.56
2023-05-05T04:55:13.838Z,57.45
2023-05-05T04:58:24.642Z,57.44
2023-05-05T05:00:53.349Z,57.40
2023-05-05T05:03:50.806Z,57.52
2023-05-05T05:07:51.708Z,57.36
2023-05-05T05:10:14.077Z,57.70
2023-05-05T05:12:44.838Z,57.85
2023-05-05T05:15:16.476Z,57.85
2023-05-05T05:17:47.272Z,58.07
2023-05-05T05:20:18.138Z,57.93
2023-05-05T05:22:49.097Z,58.12
2023-05-05T05:25:21.159Z,58.13
2023-05-05T05:28:08.325Z,57.92
2023-05-05T05:30:42.627Z,57.95
2023-05-05T05:33:16.028Z,57.45
2023-05-05T05:35:46.718Z,57.24
2023-05-05T05:38:18.950Z,57.11
2023-05-05T05:40:50.131Z,56.63
2023-05-05T05:43:21.002Z,56.37
2023-05-05T05:46:09.287Z,55.96
2023-05-05T05:48:40.151Z,55.95
2023-05-05T05:51:10.885Z,56.05
2023-05-05T05:53:41.487Z,56.08
2023-05-05T05:56:12.437Z,55.99
2023-05-05T05:58:41.529Z,56.05
2023-05-05T06:01:12.216Z,56.24
2023-05-05T06:03:42.964Z,56.32
2023-05-05T06:06:13.695Z,56.15
2023-05-05T06:08:44.364Z,55.92
2023-05-05T06:11:15.418Z,56.02
2023-05-05T06:13:46.048Z,55.73
2023-05-05T06:16:16.792Z,55.81
2023-05-05T06:18:50.297Z,55.03
2023-05-05T06:21:20.991Z,54.73
2023-05-05T06:23:51.663Z,54.57
2023-05-05T06:26:22.341Z,54.31
2023-05-05T06:28:52.981Z,54.41
2023-05-05T06:31:23.728Z,54.52
2023-05-05T06:33:52.978Z,53.94
2023-05-05T06:36:23.664Z,53.78
2023-05-05T06:38:54.374Z,53.40
2023-05-05T06:41:25.233Z,52.80
2023-05-05T06:43:56.128Z,52.87
2023-05-05T06:46:26.886Z,52.71
2023-05-05T06:48:57.509Z,52.56
2023-05-05T06:51:28.407Z,52.66
2023-05-05T06:53:57.453Z,52.50
2023-05-05T06:56:28.491Z,52.02
2023-05-05T06:58:59.242Z,52.72
2023-05-05T07:01:30.071Z,52.39
2023-05-05T07:04:00.786Z,52.46
2023-05-05T07:06:31.463Z,52.12
2023-05-05T07:09:02.572Z,50.96
2023-05-05T07:11:33.674Z,51.12
2023-05-05T07:14:04.266Z,51.73
2023-05-05T07:16:35.133Z,50.60
2023-05-05T07:19:05.901Z,49.88
2023-05-05T07:21:36.621Z,50.50
2023-05-05T07:24:09.428Z,50.40
2023-05-05T07:26:40.151Z,49.65
2023-05-05T07:29:10.819Z,49.94
2023-05-05T07:31:43.907Z,48.42
2023-05-05T07:34:14.527Z,48.92
2023-05-05T07:36:45.777Z,49.20
2023-05-05T07:39:16.882Z,49.01
2023-05-05T07:41:47.561Z,48.10
2023-05-05T07:44:18.248Z,47.62
2023-05-05T07:46:49.079Z,47.46
2023-05-05T07:49:18.547Z,48.14
2023-05-05T07:51:49.247Z,48.49
2023-05-05T07:54:20.074Z,48.31
2023-05-05T07:56:50.789Z,48.26
2023-05-05T07:59:21.707Z,48.07
2023-05-05T08:01:55.053Z,47.72
2023-05-05T08:04:26.061Z,47.85
2023-05-05T08:06:56.773Z,47.57
2023-05-05T08:09:27.510Z,47.42
2023-05-05T08:11:56.728Z,46.88
2023-05-05T08:14:27.317Z,47.45
2023-05-05T08:16:58.135Z,46.78
2023-05-05T08:19:29.609Z,45.46
2023-05-05T08:22:01.359Z,46.46
2023-05-05T08:24:32.373Z,46.44
2023-05-05T08:27:03.001Z,46.86
2023-05-05T08:29:33.630Z,46.81
2023-05-05T08:32:04.378Z,46.32
2023-05-05T08:34:33.499Z,46.35
2023-05-05T08:37:04.151Z,46.30
2023-05-05T08:39:34.827Z,45.61
2023-05-05T08:42:06.147Z,45.97
2023-05-05T08:44:36.832Z,45.32
2023-05-05T08:47:10.772Z,45.54
2023-05-05T08:49:48.506Z,45.15
2023-05-05T08:52:22.756Z,45.39
2023-05-05T08:54:57.538Z,44.51
2023-05-05T08:57:35.023Z,45.19
2023-05-05T09:00:10.124Z,44.81
2023-05-05T09:02:42.427Z,44.69
2023-05-05T09:05:13.282Z,44.20
2023-05-05T09:07:42.477Z,44.84
2023-05-05T09:10:13.717Z,44.37
2023-05-05T09:12:44.831Z,44.60
2023-05-05T09:15:16.218Z,43.25
2023-05-05T09:17:47.180Z,43.39
2023-05-05T09:20:17.955Z,43.40
2023-05-05T09:22:51.308Z,43.92
2023-05-05T09:25:21.988Z,43.52
2023-05-05T09:27:52.683Z,43.83
2023-05-05T09:30:26.514Z,42.62
2023-05-05T09:32:57.301Z,43.74
2023-05-05T09:35:26.696Z,43.90
2023-05-05T09:37:58.270Z,43.74
2023-05-05T09:40:44.158Z,43.65
2023-05-05T09:43:15.259Z,43.50
2023-05-05T09:45:46.381Z,43.55
2023-05-05T09:48:27.913Z,43.54
2023-05-05T09:50:59.424Z,43.47
2023-05-05T09:53:40.679Z,43.51
2023-05-05T09:56:11.489Z,43.20
2023-05-05T09:58:40.663Z,42.41
2023-05-05T10:01:23.516Z,43.21
2023-05-05T10:03:54.389Z,42.93
2023-05-05T10:06:41.000Z,42.65
2023-05-05T10:09:11.713Z,42.47
2023-05-05T10:11:44.714Z,42.72
2023-05-05T10:14:16.724Z,42.96
2023-05-05T10:16:50.005Z,43.16
2023-05-05T10:19:22.713Z,43.22
2023-05-05T10:21:57.634Z,43.40
2023-05-05T10:24:39.094Z,43.07
2023-05-05T10:27:15.514Z,42.56
2023-05-05T10:29:56.255Z,42.93
2023-05-05T10:35:09.873Z,43.40
2023-05-05T10:37:41.185Z,43.52
2023-05-05T10:40:14.119Z,42.79
2023-05-05T10:42:45.581Z,42.65
2023-05-05T10:45:16.453Z,42.02
2023-05-05T10:47:45.618Z,42.29
2023-05-05T10:50:30.067Z,42.37
2023-05-05T10:53:13.486Z,41.51
2023-05-05T10:55:52.547Z,42.38
2023-05-05T10:58:51.178Z,42.47
2023-05-05T11:01:52.245Z,42.31
2023-05-05T11:04:23.807Z,42.73
2023-05-05T11:07:25.633Z,42.99
2023-05-05T11:09:58.370Z,41.75
2023-05-05T11:12:29.966Z,42.04
2023-05-05T11:15:37.201Z,42.01
2023-05-05T11:18:08.602Z,42.76
2023-05-05T11:21:10.187Z,42.45
2023-05-05T11:23:41.074Z,41.57
2023-05-05T11:26:12.436Z,40.46
2023-05-05T11:29:11.952Z,39.72
2023-05-05T11:31:42.647Z,39.95
2023-05-05T11:34:31.576Z,40.30
2023-05-05T11:37:07.707Z,40.03
2023-05-05T11:39:51.182Z,39.38
2023-05-05T11:42:25.030Z,39.95
2023-05-05T11:44:56.184Z,39.44
2023-05-05T11:47:33.391Z,39.79
2023-05-05T11:50:21.958Z,39.52
2023-05-05T11:52:52.608Z,39.57
2023-05-05T11:55:23.814Z,39.30
2023-05-05T11:57:54.483Z,40.14
2023-05-05T12:00:34.429Z,39.77
2023-05-05T12:03:05.626Z,39.93
2023-05-05T12:05:37.044Z,40.01
2023-05-05T12:08:08.070Z,39.02
2023-05-05T12:10:37.184Z,40.02
2023-05-05T12:13:19.295Z,39.61
2023-05-05T12:15:50.095Z,39.18
2023-05-05T12:18:19.512Z,38.84
2023-05-05T12:20:50.308Z,39.62
2023-05-05T12:23:21.205Z,39.89
2023-05-05T12:25:51.873Z,38.92
2023-05-05T12:28:20.999Z,37.52
2023-05-05T12:30:59.132Z,38.68
2023-05-05T12:33:30.151Z,38.51
2023-05-05T12:36:16.040Z,38.73
2023-05-05T12:38:46.746Z,37.88
2023-05-05T12:41:18.809Z,37.26
2023-05-05T12:43:54.184Z,37.55
2023-05-05T12:46:51.313Z,37.62
2023-05-05T12:49:21.914Z,37.70
2023-05-05T12:51:56.814Z,38.05
2023-05-05T12:54:27.797Z,37.19
2023-05-05T12:57:10.881Z,37.05
2023-05-05T12:59:42.526Z,37.02
2023-05-05T13:02:15.047Z,36.40
2023-05-05T13:04:54.607Z,36.44
2023-05-05T13:07:25.239Z,36.53
2023-05-05T13:10:06.190Z,37.03
2023-05-05T13:12:35.268Z,37.36
2023-05-05T13:15:11.338Z,36.94
2023-05-05T13:17:42.012Z,36.57
2023-05-05T13:20:12.983Z,36.49
2023-05-05T13:22:43.592Z,36.29
2023-05-05T13:25:12.742Z,36.08
2023-05-05T13:27:43.694Z,35.53
2023-05-05T13:30:17.390Z,36.22
2023-05-05T13:32:48.082Z,36.40
2023-05-05T13:35:19.038Z,35.51
2023-05-05T13:37:49.762Z,36.11
2023-05-05T13:40:24.424Z,36.15
2023-05-05T13:42:56.572Z,36.24
2023-05-05T13:45:27.194Z,36.77
2023-05-05T13:47:56.305Z,37.00
2023-05-05T13:50:26.979Z,37.33
2023-05-05T13:52:57.710Z,37.16
2023-05-05T13:55:27.885Z,36.48
2023-05-05T13:57:58.619Z,36.77
2023-05-05T14:00:29.480Z,36.93
2023-05-05T14:03:00.507Z,36.89
2023-05-05T14:05:31.229Z,37.37
2023-05-05T14:08:00.295Z,37.46
2023-05-05T14:10:30.916Z,37.79
2023-05-05T14:12:59.965Z,37.62
2023-05-05T14:15:30.716Z,37.98
2023-05-05T14:17:59.880Z,37.54
2023-05-05T14:20:30.651Z,37.89
2023-05-05T14:23:01.329Z,38.05
2023-05-05T14:25:31.993Z,37.64
2023-05-05T14:28:01.165Z,37.29
2023-05-05T14:30:31.787Z,37.37
2023-05-05T14:33:00.919Z,37.51
2023-05-05T14:35:38.318Z,37.86
2023-05-05T14:38:09.094Z,38.26
2023-05-05T14:40:39.757Z,38.54
2023-05-05T14:43:08.844Z,38.39
2023-05-05T14:45:39.615Z,38.89
2023-05-05T14:48:08.780Z,38.95
2023-05-05T14:50:39.380Z,39.28
2023-05-05T14:53:08.447Z,39.50
2023-05-05T14:55:40.756Z,39.53
2023-05-05T14:58:11.406Z,39.65
2023-05-05T15:00:40.484Z,39.55
2023-05-05T15:03:11.260Z,39.55
2023-05-05T15:05:41.973Z,39.74
2023-05-05T15:08:12.632Z,39.72
2023-05-05T15:10:43.311Z,40.02
2023-05-05T15:13:12.548Z,40.21
2023-05-05T15:15:43.673Z,40.33
2023-05-05T15:18:14.425Z,40.60
2023-05-05T15:20:53.821Z,40.91
2023-05-05T15:23:45.075Z,41.19
2023-05-05T15:26:50.641Z,41.37
2023-05-05T15:29:18.922Z,41.30
2023-05-05T15:31:49.585Z,40.82
2023-05-05T15:34:18.735Z,40.62
2023-05-05T15:37:12.779Z,40.61
2023-05-05T15:39:43.451Z,40.28
2023-05-05T15:42:14.437Z,40.35
2023-05-05T15:44:43.431Z,40.25
2023-05-05T15:47:14.139Z,40.53
2023-05-05T15:49:43.305Z,40.66
2023-05-05T15:52:13.970Z,40.71
2023-05-05T15:54:43.040Z,40.97
2023-05-05T15:57:16.319Z,41.06
2023-05-05T15:59:46.913Z,41.09
2023-05-05T16:02:20.808Z,41.33
2023-05-05T16:04:55.707Z,41.30
2023-05-05T16:07:26.902Z,41.20
2023-05-05T16:09:57.558Z,41.23
2023-05-05T16:12:29.246Z,41.35
2023-05-05T16:14:59.888Z,41.50
2023-05-05T16:17:30.626Z,41.58
2023-05-05T16:19:59.679Z,41.68
2023-05-05T16:22:30.342Z,41.65
2023-05-05T16:25:01.020Z,41.83
2023-05-05T16:27:31.691Z,41.57
2023-05-05T16:30:02.325Z,41.63
2023-05-05T16:32:33.457Z,41.86
2023-05-05T16:35:04.548Z,41.85
2023-05-05T16:37:45.656Z,42.14
2023-05-05T16:40:16.412Z,42.27
2023-05-05T16:42:48.217Z,42.16
2023-05-05T16:45:19.288Z,42.41
2023-05-05T16:47:50.014Z,42.25
2023-05-05T16:50:20.859Z,42.58
2023-05-05T16:52:50.068Z,42.82
2023-05-05T16:55:20.902Z,43.30
2023-05-05T16:57:49.976Z,43.66
2023-05-05T17:00:21.053Z,43.37
2023-05-05T17:02:51.861Z,43.51
2023-05-05T17:05:22.535Z,43.96
2023-05-05T17:07:53.247Z,44.15
2023-05-05T17:10:24.032Z,44.34
2023-05-05T17:12:53.111Z,44.33
2023-05-05T17:15:23.751Z,44.45
2023-05-05T17:17:53.108Z,44.53
2023-05-05T17:20:23.887Z,44.59
2023-05-05T17:22:54.537Z,45.08
2023-05-05T17:25:26.809Z,45.17
2023-05-05T17:27:57.641Z,45.39
2023-05-05T17:30:48.889Z,45.66
2023-05-05T17:33:19.669Z,45.89
2023-05-05T17:35:50.289Z,46.08
2023-05-05T17:38:20.974Z,46.00
2023-05-05T17:40:51.741Z,46.08
2023-05-05T17:43:32.884Z,46.48
2023-05-05T17:46:03.619Z,46.80
2023-05-05T17:48:34.311Z,46.59
2023-05-05T17:51:05.375Z,46.73
2023-05-05T17:53:36.394Z,46.58
2023-05-05T17:56:07.287Z,46.77
2023-05-05T17:58:39.572Z,46.93
2023-05-05T18:01:19.339Z,47.11
2023-05-05T18:03:50.190Z,47.27
2023-05-05T18:06:19.301Z,47.20
2023-05-05T18:08:49.975Z,47.57
2023-05-05T18:11:20.580Z,48.20
2023-05-05T18:13:51.219Z,48.03
2023-05-05T18:16:44.848Z,48.13
2023-05-05T18:19:13.295Z,48.01
2023-05-05T18:21:44.046Z,47.87
2023-05-05T18:24:20.043Z,48.43
2023-05-05T18:26:52.509Z,48.73
2023-05-05T18:29:23.575Z,48.53
2023-05-05T18:31:54.263Z,48.65
2023-05-05T18:34:24.976Z,48.77
2023-05-05T18:36:55.575Z,48.80
2023-05-05T18:39:30.936Z,48.77
2023-05-05T18:42:01.598Z,48.97
2023-05-05T18:44:52.276Z,48.91
2023-05-05T18:47:22.895Z,48.86
2023-05-05T18:49:53.585Z,49.30
2023-05-05T18:52:26.544Z,49.25
2023-05-05T18:54:57.286Z,49.27
2023-05-05T18:57:29.876Z,49.56
2023-05-05T19:00:00.667Z,49.19
2023-05-05T19:02:41.264Z,49.51
2023-05-05T19:05:12.628Z,49.34
2023-05-05T19:07:43.447Z,49.54
2023-05-05T19:10:17.353Z,49.34
2023-05-05T19:12:51.653Z,49.68
2023-05-05T19:15:22.433Z,49.59
2023-05-05T19:18:03.307Z,49.87
2023-05-05T19:20:37.779Z,49.97
2023-05-05T19:23:10.984Z,49.69
2023-05-05T19:26:04.473Z,49.90
2023-05-05T19:28:34.805Z,50.26
2023-05-05T19:31:05.791Z,50.26
2023-05-05T19:33:35.045Z,50.03
2023-05-05T19:36:06.371Z,50.19
2023-05-05T19:38:37.023Z,50.26
2023-05-05T19:41:07.861Z,50.44
2023-05-05T19:43:38.457Z,50.98
2023-05-05T19:46:11.057Z,50.46
2023-05-05T19:49:05.168Z,50.84
2023-05-05T19:51:37.509Z,50.93
2023-05-05T19:54:09.870Z,50.73
2023-05-05T19:56:40.618Z,51.11
2023-05-05T19:59:11.253Z,51.08
2023-05-05T20:01:42.032Z,51.14
2023-05-05T20:04:11.235Z,51.08
2023-05-05T20:06:41.981Z,51.39
2023-05-05T20:09:12.617Z,51.35
2023-05-05T20:11:43.226Z,51.19
2023-05-05T20:14:13.955Z,51.35
2023-05-05T20:16:44.646Z,51.38
2023-05-05T20:19:15.321Z,51.49
2023-05-05T20:21:46.032Z,51.84
2023-05-05T20:24:16.692Z,51.74
2023-05-05T20:26:47.755Z,51.93
2023-05-05T20:29:18.469Z,52.12
2023-05-05T20:31:53.805Z,52.06
2023-05-05T20:34:24.758Z,52.07
2023-05-05T20:36:57.465Z,51.96
2023-05-05T20:39:28.177Z,51.99
2023-05-05T20:41:58.964Z,51.86
2023-05-05T20:44:29.545Z,52.11
2023-05-05T20:47:23.160Z,52.27
2023-05-05T20:49:50.258Z,52.35
2023-05-05T20:52:21.076Z,52.75
2023-05-05T20:54:51.715Z,52.42
2023-05-05T20:57:22.495Z,52.59
2023-05-05T20:59:53.082Z,52.33
2023-05-05T21:02:23.887Z,52.45
2023-05-05T21:04:54.532Z,52.62
2023-05-05T21:07:25.197Z,52.39
2023-05-05T21:09:55.826Z,52.43
2023-05-05T21:12:26.513Z,52.38
2023-05-05T21:14:57.439Z,52.29
2023-05-05T21:17:26.696Z,52.34
2023-05-05T21:19:57.579Z,52.07
2023-05-05T21:22:28.299Z,52.06
2023-05-05T21:25:10.502Z,52.10
2023-05-05T21:27:41.393Z,52.10
2023-05-05T21:30:13.205Z,51.97
2023-05-05T21:32:46.044Z,52.38
2023-05-05T21:35:16.787Z,52.21
2023-05-05T21:37:48.736Z,52.21
2023-05-05T21:40:19.334Z,52.35
2023-05-05T21:42:50.077Z,52.22
2023-05-05T21:45:20.987Z,52.22
2023-05-05T21:47:51.889Z,52.46
2023-05-05T21:50:22.761Z,52.19
2023-05-05T21:52:53.373Z,52.48
2023-05-05T21:55:24.127Z,52.30
2023-05-05T21:57:54.754Z,52.32
2023-05-05T22:00:25.567Z,52.64
2023-05-05T22:02:56.798Z,52.53
2023-05-05T22:05:27.646Z,52.69
2023-05-05T22:07:58.300Z,52.77
2023-05-05T22:10:29.115Z,52.86
2023-05-05T22:12:59.773Z,52.81
2023-05-05T22:15:38.945Z,53.08
2023-05-05T22:18:16.505Z,53.04
2023-05-05T22:20:47.277Z,53.03
2023-05-05T22:23:17.908Z,53.11
2023-05-05T22:25:48.527Z,53.09
2023-05-05T22:28:19.368Z,52.98
2023-05-05T22:30:50.477Z,53.17
2023-05-05T22:33:21.128Z,53.50
2023-05-05T22:35:51.757Z,53.54
2023-05-05T22:38:22.383Z,53.56
2023-05-05T22:40:53.039Z,53.58
2023-05-05T22:43:23.680Z,53.94
2023-05-05T22:45:54.427Z,54.17
2023-05-05T22:48:25.152Z,54.42
2023-05-05T22:50:55.775Z,54.16
2023-05-05T22:53:26.522Z,54.40
2023-05-05T22:55:57.562Z,54.55
2023-05-05T22:58:28.693Z,54.57
2023-05-05T23:00:59.361Z,54.80
2023-05-05T23:03:28.770Z,55.26
2023-05-05T23:05:59.405Z,55.47
2023-05-05T23:08:30.082Z,55.60
2023-05-05T23:11:01.439Z,55.98
2023-05-05T23:13:32.093Z,55.60
2023-05-05T23:16:03.187Z,55.76
2023-05-05T23:18:33.929Z,55.74
2023-05-05T23:21:04.990Z,56.30
2023-05-05T23:23:34.054Z,56.54
2023-05-05T23:26:04.660Z,56.89
2023-05-05T23:28:35.231Z,56.21
2023-05-05T23:31:06.000Z,57.02
2023-05-05T23:33:36.788Z,56.38
2023-05-05T23:36:09.376Z,57.12
2023-05-05T23:38:40.007Z,57.43
2023-05-05T23:41:10.663Z,57.62
2023-05-05T23:43:41.349Z,57.45
2023-05-05T23:46:12.049Z,57.85
2023-05-05T23:48:42.719Z,57.85
2023-05-05T23:51:13.290Z,57.58
2023-05-05T23:53:43.933Z,57.46
2023-05-05T23:56:14.613Z,57.39
2023-05-05T23:58:45.212Z,57.87
